createdAt,value
2022-09-20T00:01:23.217Z,14.04
2022-09-20T00:03:53.364Z,14.05
2022-09-20T00:06:24.371Z,14.19
2022-09-20T00:08:53.171Z,13.80
2022-09-20T00:11:22.958Z,14.03
2022-09-20T00:13:53.224Z,13.95
2022-09-20T00:16:23.232Z,13.98
2022-09-20T00:18:51.677Z,13.70
2022-09-20T00:21:23.392Z,14.06
2022-09-20T00:23:52.657Z,13.74
2022-09-20T00:26:21.269Z,13.84
2022-09-20T00:28:49.592Z,13.73
2022-09-20T00:31:17.938Z,13.64
2022-09-20T00:34:04.039Z,13.77
2022-09-20T00:36:36.072Z,14.22
2022-09-20T00:39:05.279Z,14.02
2022-09-20T00:41:34.149Z,13.91
2022-09-20T00:44:03.953Z,13.73
2022-09-20T00:46:36.631Z,14.13
2022-09-20T00:49:07.889Z,14.04
2022-09-20T00:51:39.849Z,14.09
2022-09-20T00:54:09.042Z,13.84
2022-09-20T00:56:39.163Z,14.00
2022-09-20T00:59:12.511Z,14.04
2022-09-20T01:01:40.760Z,13.62
2022-09-20T01:04:09.285Z,13.81
2022-09-20T01:06:38.763Z,13.99
2022-09-20T01:09:08.097Z,13.70
2022-09-20T01:11:36.622Z,13.76
2022-09-20T01:14:04.969Z,13.75
2022-09-20T01:16:34.261Z,13.78
2022-09-20T01:19:05.349Z,13.93
2022-09-20T01:21:33.820Z,13.59
2022-09-20T01:24:07.482Z,14.09
2022-09-20T01:26:55.883Z,14.30
2022-09-20T01:29:40.313Z,14.20
2022-09-20T01:32:12.773Z,14.13
2022-09-20T01:34:47.307Z,14.18
2022-09-20T01:37:21.246Z,14.08
2022-09-20T01:39:55.726Z,14.13
2022-09-20T01:42:26.877Z,14.09
2022-09-20T01:44:57.919Z,14.66
2022-09-20T01:47:36.667Z,14.33
2022-09-20T01:50:13.326Z,14.17
2022-09-20T01:53:16.201Z,14.45
2022-09-20T01:56:22.794Z,14.47
2022-09-20T01:59:24.072Z,14.49
2022-09-20T02:02:12.868Z,14.52
2022-09-20T02:05:00.852Z,14.47
2022-09-20T02:07:52.475Z,14.41
2022-09-20T02:10:47.259Z,14.37
2022-09-20T02:13:29.943Z,14.37
2022-09-20T02:16:17.612Z,14.40
2022-09-20T02:19:01.435Z,14.35
2022-09-20T02:21:31.825Z,14.04
2022-09-20T02:24:06.119Z,14.19
2022-09-20T02:26:40.416Z,14.17
2022-09-20T02:29:17.586Z,14.22
2022-09-20T02:32:04.236Z,14.28
2022-09-20T02:34:56.903Z,14.39
2022-09-20T02:37:55.540Z,14.25
2022-09-20T02:40:37.940Z,14.17
2022-09-20T02:43:12.040Z,13.96
2022-09-20T02:45:45.572Z,13.92
2022-09-20T02:48:16.502Z,13.99
2022-09-20T02:50:52.515Z,14.19
2022-09-20T02:53:32.029Z,14.16
2022-09-20T02:56:04.780Z,13.92
2022-09-20T02:58:41.447Z,14.00
2022-09-20T03:01:17.091Z,13.97
2022-09-20T03:03:52.012Z,13.93
2022-09-20T03:06:28.788Z,14.00
2022-09-20T03:09:02.394Z,13.93
2022-09-20T03:11:34.419Z,13.88
2022-09-20T03:14:09.960Z,13.77
2022-09-20T03:16:51.410Z,13.89
2022-09-20T03:19:33.588Z,13.95
2022-09-20T03:22:05.483Z,14.48
2022-09-20T03:24:43.183Z,14.09
2022-09-20T03:27:17.840Z,14.04
2022-09-20T03:29:59.583Z,14.11
2022-09-20T03:32:39.759Z,14.13
2022-09-20T03:35:22.511Z,14.19
2022-09-20T03:38:05.142Z,14.19
2022-09-20T03:40:57.568Z,14.28
2022-09-20T03:43:36.358Z,14.14
2022-09-20T03:46:14.404Z,14.10
2022-09-20T03:49:10.350Z,14.34
2022-09-20T03:51:45.713Z,14.05
2022-09-20T03:54:43.137Z,14.22
2022-09-20T03:57:28.353Z,14.17
2022-09-20T04:00:07.802Z,13.99
2022-09-20T04:02:52.501Z,14.15
2022-09-20T04:05:25.182Z,13.96
2022-09-20T04:08:02.206Z,14.12
2022-09-20T04:10:47.070Z,14.23
2022-09-20T04:13:25.444Z,14.04
2022-09-20T04:16:03.391Z,13.97
2022-09-20T04:18:35.331Z,13.92
2022-09-20T04:21:06.489Z,13.84
2022-09-20T04:23:41.698Z,13.91
2022-09-20T04:26:11.812Z,13.77
2022-09-20T04:28:44.646Z,13.83
2022-09-20T04:31:20.939Z,13.93
2022-09-20T04:33:51.617Z,13.82
2022-09-20T04:36:37.223Z,14.01
2022-09-20T04:39:15.957Z,13.99
2022-09-20T04:42:12.633Z,14.05
2022-09-20T04:45:11.205Z,14.18
2022-09-20T04:48:17.971Z,14.24
2022-09-20T04:51:10.081Z,14.22
2022-09-20T04:54:13.971Z,14.36
2022-09-20T04:56:54.044Z,14.10
2022-09-20T04:59:29.187Z,13.91
2022-09-20T05:02:48.789Z,14.29
2022-09-20T05:05:43.636Z,13.84
2022-09-20T05:08:41.347Z,13.88
2022-09-20T05:11:33.650Z,13.68
2022-09-20T05:14:23.117Z,13.74
2022-09-20T05:17:06.346Z,13.79
2022-09-20T05:19:41.490Z,13.59
2022-09-20T05:22:22.593Z,13.73
2022-09-20T05:25:27.370Z,13.99
2022-09-20T05:28:00.175Z,13.72
2022-09-20T05:30:38.150Z,13.86
2022-09-20T05:33:16.199Z,14.00
2022-09-20T05:35:50.286Z,13.97
2022-09-20T05:38:24.115Z,14.15
2022-09-20T05:41:06.862Z,14.30
2022-09-20T05:43:36.733Z,14.04
2022-09-20T05:46:15.602Z,14.44
2022-09-20T05:48:54.572Z,14.66
2022-09-20T05:51:37.036Z,14.89
2022-09-20T05:54:32.517Z,14.98
2022-09-20T05:57:12.336Z,14.99
2022-09-20T05:59:52.938Z,14.94
2022-09-20T06:02:32.174Z,15.05
2022-09-20T06:05:04.784Z,14.85
2022-09-20T06:07:46.236Z,14.86
2022-09-20T06:10:26.548Z,15.41
2022-09-20T06:12:59.492Z,14.72
2022-09-20T06:15:30.682Z,14.53
2022-09-20T06:18:15.172Z,14.71
2022-09-20T06:20:49.879Z,14.87
2022-09-20T06:23:18.938Z,14.64
2022-09-20T06:25:56.272Z,14.95
2022-09-20T06:28:26.467Z,14.87
2022-09-20T06:30:57.332Z,14.78
2022-09-20T06:33:28.468Z,14.82
2022-09-20T06:36:22.411Z,15.04
2022-09-20T06:39:15.107Z,15.06
2022-09-20T06:41:44.376Z,14.57
2022-09-20T06:44:12.489Z,14.58
2022-09-20T06:46:41.770Z,14.57
2022-09-20T06:49:11.685Z,14.93
2022-09-20T06:51:41.535Z,14.87
2022-09-20T06:54:17.427Z,15.29
2022-09-20T06:56:46.939Z,14.96
2022-09-20T06:59:15.470Z,14.90
2022-09-20T07:01:44.812Z,15.12
2022-09-20T07:04:14.699Z,15.08
2022-09-20T07:06:42.942Z,14.68
2022-09-20T07:09:12.598Z,14.95
2022-09-20T07:11:40.876Z,14.49
2022-09-20T07:14:09.549Z,14.36
2022-09-20T07:16:38.094Z,14.40
2022-09-20T07:19:06.707Z,14.35
2022-09-20T07:21:36.213Z,14.65
2022-09-20T07:24:04.465Z,14.35
2022-09-20T07:26:33.668Z,14.34
2022-09-20T07:29:02.452Z,14.53
2022-09-20T07:31:31.278Z,14.63
2022-09-20T07:33:59.622Z,14.46
2022-09-20T07:36:29.380Z,14.64
2022-09-20T07:38:59.022Z,14.98
2022-09-20T07:41:32.592Z,14.67
2022-09-20T07:44:20.689Z,14.76
2022-09-20T07:46:49.531Z,15.05
2022-09-20T07:49:17.716Z,14.93
2022-09-20T07:51:46.068Z,15.04
2022-09-20T07:54:16.244Z,15.15
2022-09-20T07:56:44.894Z,14.81
2022-09-20T07:59:13.730Z,14.89
2022-09-20T08:01:42.814Z,15.11
2022-09-20T08:04:11.712Z,15.06
2022-09-20T08:06:40.941Z,15.01
2022-09-20T08:09:11.296Z,14.98
2022-09-20T08:11:41.806Z,15.21
2022-09-20T08:14:14.457Z,15.61
2022-09-20T08:16:44.877Z,15.86
2022-09-20T08:19:16.757Z,16.34
2022-09-20T08:21:45.196Z,16.16
2022-09-20T08:24:13.276Z,16.32
2022-09-20T08:26:43.714Z,16.70
2022-09-20T08:29:12.278Z,16.43
2022-09-20T08:31:42.702Z,16.51
2022-09-20T08:34:13.067Z,16.77
2022-09-20T08:36:42.607Z,16.78
2022-09-20T08:42:08.974Z,17.00
2022-09-20T08:44:45.831Z,16.91
2022-09-20T08:47:19.499Z,16.66
2022-09-20T08:49:47.707Z,16.05
2022-09-20T08:52:18.158Z,16.26
2022-09-20T08:54:47.023Z,15.77
2022-09-20T08:57:18.578Z,16.11
2022-09-20T08:59:46.860Z,15.80
2022-09-20T09:02:18.245Z,16.23
2022-09-20T09:04:46.528Z,16.76
2022-09-20T09:07:16.456Z,15.83
2022-09-20T09:09:46.754Z,15.74
2022-09-20T09:12:23.249Z,16.07
2022-09-20T09:14:55.222Z,15.99
2022-09-20T09:17:28.460Z,16.17
2022-09-20T09:19:58.301Z,16.21
2022-09-20T09:22:32.249Z,16.54
2022-09-20T09:25:26.905Z,16.78
2022-09-20T09:27:58.505Z,16.32
2022-09-20T09:30:29.396Z,16.48
2022-09-20T09:33:28.027Z,17.35
2022-09-20T09:35:59.456Z,17.27
2022-09-20T09:38:29.994Z,17.72
2022-09-20T09:40:59.388Z,17.86
2022-09-20T09:43:30.412Z,18.14
2022-09-20T09:46:18.469Z,18.65
2022-09-20T09:48:50.066Z,17.97
2022-09-20T09:51:20.227Z,18.36
2022-09-20T09:53:49.479Z,18.47
2022-09-20T09:56:28.369Z,19.21
2022-09-20T09:59:10.724Z,19.64
2022-09-20T10:01:42.848Z,19.39
2022-09-20T10:04:15.395Z,19.30
2022-09-20T10:06:52.262Z,19.42
2022-09-20T10:09:30.493Z,19.57
2022-09-20T10:12:11.867Z,20.81
2022-09-20T10:14:46.443Z,24.10
2022-09-20T10:17:35.212Z,28.43
2022-09-20T10:20:15.397Z,32.34
2022-09-20T10:23:21.434Z,32.47
2022-09-20T10:25:43.306Z,31.52
2022-09-20T10:28:25.744Z,32.32
2022-09-20T10:31:05.582Z,31.86
2022-09-20T10:33:37.854Z,31.44
2022-09-20T10:36:14.116Z,33.62
2022-09-20T10:38:47.158Z,36.21
2022-09-20T10:41:42.070Z,35.74
2022-09-20T10:44:16.697Z,31.80
2022-09-20T10:46:54.973Z,30.33
2022-09-20T10:49:29.738Z,30.15
2022-09-20T10:52:22.176Z,27.71
2022-09-20T10:55:03.797Z,24.87
2022-09-20T10:57:50.015Z,22.97
2022-09-20T11:00:22.363Z,21.49
2022-09-20T11:03:13.361Z,20.86
2022-09-20T11:05:46.567Z,20.29
2022-09-20T11:08:19.036Z,20.12
2022-09-20T11:10:50.137Z,20.08
2022-09-20T11:13:21.390Z,20.62
2022-09-20T11:15:54.595Z,20.06
2022-09-20T11:18:28.331Z,20.24
2022-09-20T11:21:01.690Z,20.48
2022-09-20T11:23:35.166Z,21.39
2022-09-20T11:26:09.650Z,23.40
2022-09-20T11:28:41.786Z,25.15
2022-09-20T11:31:13.004Z,26.09
2022-09-20T11:33:46.195Z,26.09
2022-09-20T11:36:17.672Z,25.37
2022-09-20T11:38:53.252Z,24.59
2022-09-20T11:41:26.064Z,23.67
2022-09-20T11:43:57.511Z,23.17
2022-09-20T11:46:28.317Z,22.79
2022-09-20T11:49:02.537Z,22.81
2022-09-20T11:51:54.684Z,22.68
2022-09-20T11:55:04.644Z,22.48
2022-09-20T11:57:33.453Z,21.87
2022-09-20T12:00:04.291Z,22.14
2022-09-20T12:02:35.741Z,22.62
2022-09-20T12:05:07.102Z,21.83
2022-09-20T12:07:38.133Z,21.35
2022-09-20T12:10:09.592Z,20.83
2022-09-20T12:12:41.685Z,20.43
2022-09-20T12:15:25.024Z,20.57
2022-09-20T12:18:25.874Z,20.42
2022-09-20T12:21:16.131Z,20.00
2022-09-20T12:24:23.570Z,19.70
2022-09-20T12:27:00.206Z,19.39
2022-09-20T12:30:09.481Z,19.72
2022-09-20T12:32:47.292Z,19.25
2022-09-20T12:36:00.715Z,19.12
2022-09-20T12:38:40.077Z,18.54
2022-09-20T12:41:16.884Z,18.19
2022-09-20T12:44:01.246Z,18.28
2022-09-20T12:46:34.134Z,18.09
2022-09-20T12:49:41.618Z,18.49
2022-09-20T12:52:49.890Z,18.76
2022-09-20T12:55:32.987Z,19.00
2022-09-20T12:58:03.691Z,18.61
2022-09-20T13:00:38.469Z,18.55
2022-09-20T13:03:23.259Z,18.75
2022-09-20T13:05:53.140Z,18.33
2022-09-20T13:08:24.446Z,18.31
2022-09-20T13:11:02.298Z,18.26
2022-09-20T13:13:33.712Z,18.04
2022-09-20T13:16:05.765Z,17.93
2022-09-20T13:18:35.845Z,17.91
2022-09-20T13:21:07.139Z,17.86
2022-09-20T13:23:46.628Z,18.20
2022-09-20T13:26:17.083Z,18.10
2022-09-20T13:28:49.239Z,18.07
2022-09-20T13:31:24.457Z,18.12
2022-09-20T13:33:52.979Z,17.61
2022-09-20T13:36:27.243Z,18.06
2022-09-20T13:38:57.971Z,18.03
2022-09-20T13:41:32.618Z,18.06
2022-09-20T13:44:01.495Z,17.61
2022-09-20T13:46:31.512Z,17.63
2022-09-20T13:49:10.579Z,17.68
2022-09-20T13:51:38.901Z,17.45
2022-09-20T13:54:21.956Z,18.13
2022-09-20T13:56:52.186Z,17.75
2022-09-20T13:59:20.801Z,17.39
2022-09-20T14:01:53.179Z,17.65
2022-09-20T14:04:23.589Z,17.62
2022-09-20T14:06:54.740Z,17.75
2022-09-20T14:09:25.135Z,18.37
2022-09-20T14:11:55.107Z,17.94
2022-09-20T14:14:24.600Z,17.80
2022-09-20T14:16:55.060Z,18.15
2022-09-20T14:19:28.758Z,18.71
2022-09-20T14:21:58.177Z,18.69
2022-09-20T14:24:32.014Z,19.53
2022-09-20T14:27:05.707Z,19.94
2022-09-20T14:29:41.229Z,20.15
2022-09-20T14:32:27.500Z,20.08
2022-09-20T14:35:02.313Z,19.98
2022-09-20T14:37:33.172Z,19.72
2022-09-20T14:40:03.698Z,19.60
2022-09-20T14:42:35.992Z,19.56
2022-09-20T14:45:05.656Z,19.17
2022-09-20T14:47:38.830Z,19.01
2022-09-20T14:50:25.130Z,18.72
2022-09-20T14:53:08.369Z,18.35
2022-09-20T14:55:37.997Z,17.70
2022-09-20T14:58:11.920Z,17.81
2022-09-20T15:00:51.233Z,17.74
2022-09-20T15:03:26.448Z,17.51
2022-09-20T15:05:54.774Z,16.96
2022-09-20T15:08:23.482Z,16.90
2022-09-20T15:10:52.062Z,16.83
2022-09-20T15:13:21.792Z,17.07
2022-09-20T15:15:52.765Z,17.10
2022-09-20T15:18:22.885Z,17.38
2022-09-20T15:20:51.463Z,17.17
2022-09-20T15:23:20.076Z,17.33
2022-09-20T15:25:51.296Z,17.77
2022-09-20T15:28:19.693Z,18.49
2022-09-20T15:30:51.473Z,18.08
2022-09-20T15:33:20.557Z,18.03
2022-09-20T15:35:49.916Z,18.02
2022-09-20T15:38:18.919Z,18.04
2022-09-20T15:40:48.586Z,18.10
2022-09-20T15:43:19.685Z,18.07
2022-09-20T15:45:51.607Z,18.15
2022-09-20T15:48:21.625Z,17.52
2022-09-20T15:51:03.581Z,18.04
2022-09-20T15:53:35.841Z,17.50
2022-09-20T15:56:06.857Z,17.60
2022-09-20T15:58:36.746Z,17.28
2022-09-20T16:01:08.213Z,17.34
2022-09-20T16:03:37.451Z,17.06
2022-09-20T16:06:08.267Z,16.99
2022-09-20T16:08:38.107Z,16.83
2022-09-20T16:11:07.296Z,16.67
2022-09-20T16:13:36.764Z,16.42
2022-09-20T16:16:08.696Z,16.74
2022-09-20T16:18:55.771Z,16.32
2022-09-20T16:21:24.551Z,16.21
2022-09-20T16:23:54.305Z,16.28
2022-09-20T16:26:24.186Z,16.08
2022-09-20T16:28:53.119Z,15.94
2022-09-20T16:31:34.820Z,16.39
2022-09-20T16:34:04.175Z,15.90
2022-09-20T16:36:32.472Z,15.75
2022-09-20T16:39:01.737Z,15.77
2022-09-20T16:41:31.117Z,15.72
2022-09-20T16:43:59.723Z,15.63
2022-09-20T16:46:28.348Z,15.83
2022-09-20T16:49:00.993Z,16.13
2022-09-20T16:51:33.556Z,16.09
2022-09-20T16:54:05.822Z,16.15
2022-09-20T16:56:35.920Z,15.86
2022-09-20T16:59:06.368Z,15.73
2022-09-20T17:01:37.139Z,15.43
2022-09-20T17:04:08.414Z,15.75
2022-09-20T17:06:38.927Z,15.45
2022-09-20T17:09:08.976Z,15.46
2022-09-20T17:11:38.944Z,15.31
2022-09-20T17:14:08.649Z,15.24
2022-09-20T17:16:39.599Z,15.22
2022-09-20T17:19:11.687Z,15.22
2022-09-20T17:21:43.547Z,14.97
2022-09-20T17:24:12.254Z,14.80
2022-09-20T17:26:41.826Z,14.76
2022-09-20T17:29:13.792Z,14.76
2022-09-20T17:31:44.570Z,14.84
2022-09-20T17:34:15.734Z,14.94
2022-09-20T17:36:45.561Z,14.74
2022-09-20T17:39:15.539Z,14.80
2022-09-20T17:41:44.961Z,14.76
2022-09-20T17:44:13.574Z,14.59
2022-09-20T17:46:42.864Z,14.78
2022-09-20T17:49:12.337Z,14.81
2022-09-20T17:51:43.674Z,14.98
2022-09-20T17:54:14.095Z,14.79
2022-09-20T17:56:45.859Z,14.89
2022-09-20T17:59:15.806Z,14.90
2022-09-20T18:01:44.948Z,14.88
2022-09-20T18:04:13.711Z,14.67
2022-09-20T18:06:47.080Z,15.11
2022-09-20T18:09:16.998Z,14.86
2022-09-20T18:11:48.901Z,14.91
2022-09-20T18:14:19.086Z,14.88
2022-09-20T18:16:47.396Z,14.73
2022-09-20T18:19:16.396Z,14.81
2022-09-20T18:21:46.117Z,15.10
2022-09-20T18:24:14.344Z,14.83
2022-09-20T18:26:42.871Z,14.89
2022-09-20T18:29:12.941Z,15.10
2022-09-20T18:31:43.556Z,14.94
2022-09-20T18:34:18.576Z,15.07
2022-09-20T18:36:53.354Z,15.15
2022-09-20T18:39:22.839Z,14.84
2022-09-20T18:41:53.560Z,15.02
2022-09-20T18:44:22.826Z,14.93
2022-09-20T18:46:54.281Z,14.96
2022-09-20T18:49:23.058Z,15.70
2022-09-20T18:51:52.990Z,15.07
2022-09-20T18:54:21.449Z,14.85
2022-09-20T18:56:51.426Z,14.92
2022-09-20T18:59:21.233Z,14.95
2022-09-20T19:02:09.661Z,15.34
2022-09-20T19:04:52.449Z,15.25
2022-09-20T19:07:28.024Z,14.97
2022-09-20T19:09:59.513Z,14.85
2022-09-20T19:12:33.020Z,14.94
2022-09-20T19:15:23.943Z,14.92
2022-09-20T19:18:02.122Z,15.04
2022-09-20T19:20:34.124Z,14.97
2022-09-20T19:23:12.217Z,15.07
2022-09-20T19:25:44.194Z,14.82
2022-09-20T19:28:13.773Z,14.79
2022-09-20T19:30:48.252Z,14.67
2022-09-20T19:33:18.418Z,14.70
2022-09-20T19:35:50.761Z,14.74
2022-09-20T19:38:31.493Z,14.80
2022-09-20T19:41:04.912Z,14.55
2022-09-20T19:43:54.150Z,14.68
2022-09-20T19:46:36.241Z,14.47
2022-09-20T19:49:10.039Z,14.28
2022-09-20T19:51:39.641Z,14.04
2022-09-20T19:54:10.624Z,14.30
2022-09-20T19:56:48.510Z,14.57
2022-09-20T19:59:17.822Z,14.24
2022-09-20T20:01:46.549Z,14.17
2022-09-20T20:04:15.104Z,14.06
2022-09-20T20:06:48.549Z,14.44
2022-09-20T20:09:25.366Z,14.45
2022-09-20T20:12:00.356Z,14.35
2022-09-20T20:14:34.217Z,14.09
2022-09-20T20:17:12.839Z,14.12
2022-09-20T20:19:51.386Z,14.08
2022-09-20T20:22:28.538Z,13.93
2022-09-20T20:24:58.634Z,13.73
2022-09-20T20:27:28.668Z,13.43
2022-09-20T20:29:56.937Z,13.32
2022-09-20T20:32:25.940Z,13.20
2022-09-20T20:34:54.250Z,13.06
2022-09-20T20:37:24.463Z,13.06
2022-09-20T20:39:53.078Z,12.98
2022-09-20T20:42:22.816Z,13.33
2022-09-20T20:44:50.851Z,13.00
2022-09-20T20:47:18.950Z,13.05
2022-09-20T20:49:51.997Z,13.01
2022-09-20T20:52:20.671Z,12.92
2022-09-20T20:54:48.860Z,12.84
2022-09-20T20:57:19.118Z,12.77
2022-09-20T20:59:48.691Z,13.13
2022-09-20T21:02:17.458Z,12.87
2022-09-20T21:04:46.246Z,12.88
2022-09-20T21:07:14.381Z,12.93
2022-09-20T21:09:42.766Z,13.00
2022-09-20T21:12:10.964Z,13.08
2022-09-20T21:14:39.282Z,13.16
2022-09-20T21:17:09.190Z,13.47
2022-09-20T21:19:37.269Z,13.11
2022-09-20T21:22:05.568Z,13.11
2022-09-20T21:24:33.819Z,13.14
2022-09-20T21:27:02.243Z,13.12
2022-09-20T21:29:30.356Z,13.15
2022-09-20T21:31:58.575Z,13.17
2022-09-20T21:34:27.980Z,13.53
2022-09-20T21:36:56.040Z,13.14
2022-09-20T21:39:24.322Z,13.07
2022-09-20T21:41:52.564Z,13.08
2022-09-20T21:44:20.639Z,12.96
2022-09-20T21:46:50.163Z,12.92
2022-09-20T21:49:18.213Z,12.86
2022-09-20T21:51:47.650Z,13.21
2022-09-20T21:54:16.012Z,12.84
2022-09-20T21:56:44.247Z,12.90
2022-09-20T21:59:12.227Z,12.79
2022-09-20T22:01:41.226Z,12.96
2022-09-20T22:04:10.733Z,13.02
2022-09-20T22:06:39.896Z,13.01
2022-09-20T22:09:10.807Z,13.24
2022-09-20T22:11:40.724Z,13.18
2022-09-20T22:14:09.555Z,13.12
2022-09-20T22:16:39.060Z,13.15
2022-09-20T22:19:10.169Z,13.20
2022-09-20T22:21:39.225Z,13.92
2022-09-20T22:24:10.612Z,13.25
2022-09-20T22:26:39.894Z,14.05
2022-09-20T22:29:09.496Z,13.27
2022-09-20T22:31:41.544Z,13.48
2022-09-20T22:34:09.696Z,14.25
2022-09-20T22:36:39.975Z,13.69
2022-09-20T22:39:11.099Z,13.77
2022-09-20T22:41:41.193Z,14.35
2022-09-20T22:44:09.887Z,13.61
2022-09-20T22:46:39.197Z,13.57
2022-09-20T22:49:08.361Z,13.59
2022-09-20T22:51:37.384Z,13.69
2022-09-20T22:54:07.074Z,13.87
2022-09-20T22:56:37.847Z,13.89
2022-09-20T22:59:08.051Z,13.76
2022-09-20T23:01:37.516Z,13.71
2022-09-20T23:04:07.881Z,13.68
2022-09-20T23:06:38.227Z,13.74
2022-09-20T23:09:08.039Z,13.68
2022-09-20T23:11:37.976Z,13.70
2022-09-20T23:14:07.559Z,13.57
2022-09-20T23:16:37.278Z,13.53
2022-09-20T23:19:07.304Z,13.64
2022-09-20T23:21:37.275Z,13.60
2022-09-20T23:24:07.634Z,13.61
2022-09-20T23:26:38.950Z,13.68
2022-09-20T23:29:08.990Z,13.72
2022-09-20T23:31:38.380Z,13.63
2022-09-20T23:34:08.207Z,13.56
2022-09-20T23:36:39.159Z,13.66
2022-09-20T23:39:08.448Z,13.55
2022-09-20T23:41:38.597Z,13.37
2022-09-20T23:44:09.851Z,13.36
2022-09-20T23:46:38.426Z,13.18
2022-09-20T23:49:09.380Z,13.13
2022-09-20T23:51:38.267Z,12.97
2022-09-20T23:54:06.961Z,12.88
2022-09-20T23:56:35.929Z,12.82
2022-09-20T23:59:05.994Z,13.15
